Time;durP1;ratioP1;P1;durP2;ratioP2;P2;SDS_P1;SDS_P2;PMS_P1;PMS_P2;Temp;Humidity;BMP_temperature;BMP_pressure;BME280_temperature;BME280_humidity;BME280_pressure;Samples;Min_cycle;Max_cycle;Signal;HPM_P1;HPM_P2
2024/01/19 00:00:24;;;;;;;13.02;6.63;;;0.20;99.90;;;;;;5073006;28;20523;-65
2024/01/19 00:02:49;;;;;;;17.42;7.32;;;0.20;99.90;;;;;;5072804;28;20111;-65
2024/01/19 00:05:18;;;;;;;12.82;7.70;;;0.20;99.90;;;;;;5072940;28;20037;-66
2024/01/19 00:07:43;;;;;;;11.05;6.13;;;0.20;99.90;;;;;;5072884;28;20048;-65
2024/01/19 00:10:09;;;;;;;13.93;6.72;;;0.20;99.90;;;;;;5072855;28;20044;-65
2024/01/19 00:12:35;;;;;;;12.05;6.93;;;0.20;99.90;;;;;;5071637;28;20042;-65
2024/01/19 00:15:05;;;;;;;11.68;7.53;;;0.30;99.90;;;;;;5072677;28;20077;-66
2024/01/19 00:17:31;;;;;;;13.63;7.97;;;0.30;99.90;;;;;;5072735;28;20025;-66
2024/01/19 00:19:56;;;;;;;15.50;7.70;;;0.40;99.90;;;;;;5072537;28;20024;-65
2024/01/19 00:22:22;;;;;;;13.60;7.38;;;0.40;99.90;;;;;;5072651;28;20037;-65
2024/01/19 00:24:47;;;;;;;12.25;6.13;;;0.40;99.90;;;;;;5072619;28;20077;-65
2024/01/19 00:27:13;;;;;;;14.88;6.43;;;0.40;99.90;;;;;;5072596;28;20135;-65
2024/01/19 00:29:39;;;;;;;14.35;6.32;;;0.40;99.90;;;;;;5072503;28;20033;-65
2024/01/19 00:32:05;;;;;;;12.23;6.80;;;0.40;99.90;;;;;;5072408;28;20108;-66
2024/01/19 00:34:31;;;;;;;14.05;6.38;;;0.40;99.90;;;;;;5072277;28;20025;-64
2024/01/19 00:36:57;;;;;;;14.10;6.20;;;0.40;99.90;;;;;;5072369;28;20023;-66
2024/01/19 00:39:22;;;;;;;14.30;6.25;;;0.40;99.90;;;;;;5072380;28;20064;-65
2024/01/19 00:41:48;;;;;;;9.18;6.20;;;0.40;99.90;;;;;;5072396;28;20033;-65
2024/01/19 00:44:14;;;;;;;14.35;6.30;;;0.40;99.90;;;;;;5072193;28;20021;-65
2024/01/19 00:46:40;;;;;;;11.38;6.10;;;0.40;99.90;;;;;;5072248;28;20021;-65
2024/01/19 00:49:05;;;;;;;12.00;6.65;;;0.30;99.90;;;;;;5072256;28;20029;-65
2024/01/19 00:51:31;;;;;;;9.80;6.68;;;0.30;99.90;;;;;;5072226;28;20040;-65
2024/01/19 00:53:57;;;;;;;17.80;6.65;;;0.30;99.90;;;;;;5071152;28;20029;-65
2024/01/19 00:56:22;;;;;;;11.52;6.53;;;0.30;99.90;;;;;;5072163;28;20028;-66
2024/01/19 00:58:48;;;;;;;10.27;6.38;;;0.30;99.90;;;;;;5070000;28;20072;-65
2024/01/19 01:01:13;;;;;;;9.95;6.30;;;0.30;99.90;;;;;;5072171;28;20083;-65
2024/01/19 01:03:39;;;;;;;10.07;5.65;;;0.30;99.90;;;;;;5071864;28;20057;-66
2024/01/19 01:06:05;;;;;;;9.52;5.95;;;0.30;99.90;;;;;;5072163;28;20032;-66
2024/01/19 01:08:36;;;;;;;11.75;6.88;;;0.30;99.90;;;;;;5071956;28;20040;-66
2024/01/19 01:11:05;;;;;;;12.77;7.57;;;0.40;99.90;;;;;;5072097;28;20083;-65
2024/01/19 01:13:31;;;;;;;14.45;7.28;;;0.40;99.90;;;;;;5071973;28;20060;-65
2024/01/19 01:15:56;;;;;;;10.38;6.40;;;0.40;99.90;;;;;;5071922;28;20033;-66
2024/01/19 01:18:22;;;;;;;12.57;7.45;;;0.50;99.90;;;;;;5071919;28;20033;-65
2024/01/19 01:20:50;;;;;;;10.63;5.55;;;0.50;99.90;;;;;;5071807;28;20014;-65
2024/01/19 01:23:16;;;;;;;14.93;6.68;;;0.50;99.90;;;;;;5071960;28;20081;-65
2024/01/19 01:25:41;;;;;;;12.13;6.30;;;0.50;99.90;;;;;;5071840;28;20025;-65
2024/01/19 01:28:07;;;;;;;11.68;6.55;;;0.60;99.90;;;;;;5070834;28;20022;-66
2024/01/19 01:30:32;;;;;;;10.20;6.38;;;0.60;99.90;;;;;;5071994;28;20033;-64
2024/01/19 01:32:58;;;;;;;13.90;7.10;;;0.60;99.90;;;;;;5071563;28;20035;-65
2024/01/19 01:35:24;;;;;;;13.07;7.25;;;0.60;99.90;;;;;;5071836;28;20025;-65
2024/01/19 01:37:49;;;;;;;13.43;6.07;;;0.60;99.90;;;;;;5071649;28;20036;-65
2024/01/19 01:40:15;;;;;;;14.73;6.70;;;0.50;99.90;;;;;;5070666;28;20029;-65
2024/01/19 01:42:40;;;;;;;11.10;6.85;;;0.60;99.90;;;;;;5071746;28;20029;-65
2024/01/19 01:45:07;;;;;;;12.82;7.30;;;0.50;99.90;;;;;;5071733;28;20044;-65
2024/01/19 01:47:32;;;;;;;13.15;6.18;;;0.50;99.90;;;;;;5071749;28;20083;-65
2024/01/19 01:49:59;;;;;;;10.43;6.03;;;0.50;99.90;;;;;;5071730;28;20025;-66
2024/01/19 01:52:25;;;;;;;13.38;6.43;;;0.50;99.90;;;;;;5071711;28;20028;-65
2024/01/19 01:54:52;;;;;;;12.75;6.70;;;0.50;99.90;;;;;;5071552;28;20025;-65
2024/01/19 01:57:20;;;;;;;14.95;7.32;;;0.50;99.90;;;;;;5071429;28;20029;-65
2024/01/19 01:59:46;;;;;;;12.70;5.68;;;0.50;99.90;;;;;;5071610;28;20060;-65
2024/01/19 02:02:12;;;;;;;11.10;5.82;;;0.50;99.90;;;;;;5071343;28;20070;-64
2024/01/19 02:04:39;;;;;;;10.38;6.03;;;0.50;99.90;;;;;;5071610;28;20041;-66
2024/01/19 02:07:05;;;;;;;11.88;5.93;;;0.50;99.90;;;;;;5071504;28;20044;-65
2024/01/19 02:09:31;;;;;;;10.85;5.50;;;0.40;99.90;;;;;;5071475;28;20039;-66
2024/01/19 02:11:57;;;;;;;9.43;5.82;;;0.30;99.90;;;;;;5074902;28;20368;-65
2024/01/19 02:14:23;;;;;;;11.63;5.90;;;0.30;99.90;;;;;;5075107;28;20017;-65
2024/01/19 02:16:48;;;;;;;8.45;5.40;;;0.30;99.90;;;;;;5075094;28;20028;-65
2024/01/19 02:19:14;;;;;;;9.30;6.20;;;0.30;99.90;;;;;;5075091;28;20029;-65
2024/01/19 02:21:40;;;;;;;11.57;6.20;;;0.30;99.90;;;;;;5074922;28;20029;-65
2024/01/19 02:24:12;;;;;;;14.13;6.10;;;0.30;99.90;;;;;;5074843;28;20057;-66
2024/01/19 02:26:38;;;;;;;9.98;5.65;;;0.30;99.90;;;;;;5074966;28;20024;-65
2024/01/19 02:29:04;;;;;;;11.75;5.72;;;0.30;99.90;;;;;;5074936;28;20037;-65
2024/01/19 02:31:30;;;;;;;11.77;5.82;;;0.20;99.90;;;;;;5074721;28;20029;-65
2024/01/19 02:33:56;;;;;;;8.65;4.97;;;0.30;99.90;;;;;;5074574;28;20111;-65
2024/01/19 02:36:22;;;;;;;10.73;5.28;;;0.20;99.90;;;;;;5074725;28;20086;-65
2024/01/19 02:38:47;;;;;;;9.45;5.07;;;0.30;99.90;;;;;;5074599;28;20037;-65
2024/01/19 02:41:13;;;;;;;9.30;4.88;;;0.20;99.90;;;;;;5074669;28;20036;-65
2024/01/19 02:43:39;;;;;;;12.00;4.90;;;0.20;99.90;;;;;;5074478;28;20041;-65
2024/01/19 02:46:04;;;;;;;11.02;5.35;;;0.10;99.90;;;;;;5074468;28;20057;-65
2024/01/19 02:48:30;;;;;;;10.45;4.88;;;0.00;99.90;;;;;;5074353;28;20083;-65
2024/01/19 02:50:55;;;;;;;10.15;3.83;;;0.00;99.90;;;;;;5074356;28;20036;-65
2024/01/19 02:53:21;;;;;;;8.40;5.07;;;-0.10;99.90;;;;;;5074249;28;20025;-66
2024/01/19 02:55:47;;;;;;;10.18;4.75;;;-0.20;99.90;;;;;;5074399;28;20029;-65
2024/01/19 02:58:12;;;;;;;10.93;4.15;;;-0.20;99.90;;;;;;5074147;28;20053;-65
2024/01/19 03:00:39;;;;;;;9.38;4.43;;;-0.30;99.90;;;;;;5074314;28;20021;-66
2024/01/19 03:03:04;;;;;;;7.32;4.35;;;-0.30;99.90;;;;;;5074004;28;20475;-65
2024/01/19 03:05:30;;;;;;;9.35;4.40;;;-0.40;99.90;;;;;;5074159;28;20037;-65
2024/01/19 03:07:56;;;;;;;10.88;4.95;;;-0.40;99.90;;;;;;5073933;28;20044;-65
2024/01/19 03:10:21;;;;;;;7.70;4.50;;;-0.40;99.90;;;;;;5074105;28;20041;-66
2024/01/19 03:12:47;;;;;;;8.27;4.25;;;-0.50;99.90;;;;;;5073814;28;20041;-65
2024/01/19 03:15:13;;;;;;;11.05;5.18;;;-0.40;99.90;;;;;;5074046;28;20029;-65
2024/01/19 03:17:38;;;;;;;12.10;4.40;;;-0.40;99.90;;;;;;5073935;28;20032;-65
2024/01/19 03:20:05;;;;;;;8.00;4.43;;;-0.40;99.90;;;;;;5073826;28;20080;-65
2024/01/19 03:22:31;;;;;;;8.75;4.82;;;-0.40;99.90;;;;;;5072761;28;20022;-65
2024/01/19 03:24:57;;;;;;;9.93;4.18;;;-0.40;99.90;;;;;;5073803;28;20029;-65
2024/01/19 03:27:22;;;;;;;10.70;4.15;;;-0.50;99.90;;;;;;5073738;28;20033;-65
2024/01/19 03:29:48;;;;;;;8.13;4.70;;;-0.50;99.90;;;;;;5073671;28;20037;-65
2024/01/19 03:32:14;;;;;;;10.60;4.63;;;-0.50;99.90;;;;;;5073235;28;20033;-65
2024/01/19 03:34:40;;;;;;;9.23;4.22;;;-0.50;99.90;;;;;;5073637;28;20033;-65
2024/01/19 03:37:06;;;;;;;14.88;6.00;;;-0.50;99.90;;;;;;5073499;28;20033;-65
2024/01/19 03:39:33;;;;;;;9.93;4.57;;;-0.60;99.90;;;;;;5073538;28;20052;-65
2024/01/19 03:42:02;;;;;;;12.32;5.00;;;-0.60;99.90;;;;;;5073554;28;20025;-65
2024/01/19 03:44:27;;;;;;;9.23;4.80;;;-0.60;99.90;;;;;;5073432;28;20029;-65
2024/01/19 03:46:53;;;;;;;11.40;4.22;;;-0.60;99.90;;;;;;5073461;28;20032;-65
2024/01/19 03:49:19;;;;;;;12.23;5.07;;;-0.60;99.90;;;;;;5073393;28;20036;-65
2024/01/19 03:52:03;;;;;;;12.68;5.22;;;-0.60;99.90;;;;;;5073144;28;20044;-65
2024/01/19 03:54:29;;;;;;;11.63;5.13;;;-0.60;99.90;;;;;;5073270;28;20021;-65
2024/01/19 03:56:58;;;;;;;8.63;4.72;;;-0.60;99.90;;;;;;5073196;28;20075;-65
2024/01/19 03:59:24;;;;;;;7.18;4.57;;;-0.60;99.90;;;;;;5072867;28;20045;-64
2024/01/19 04:01:50;;;;;;;10.85;4.57;;;-0.60;99.90;;;;;;5073119;28;20035;-65
2024/01/19 04:04:15;;;;;;;6.97;4.28;;;-0.50;99.90;;;;;;5072651;28;20036;-65
2024/01/19 04:06:41;;;;;;;8.10;4.60;;;-0.40;99.90;;;;;;5072931;28;20059;-66
2024/01/19 04:09:06;;;;;;;14.23;6.68;;;-0.50;99.90;;;;;;5072867;28;20125;-65
2024/01/19 04:11:39;;;;;;;10.63;5.75;;;-0.40;99.90;;;;;;5072815;28;20088;-64
2024/01/19 04:14:04;;;;;;;10.77;5.45;;;-0.30;99.90;;;;;;5072870;28;20025;-65
2024/01/19 04:16:30;;;;;;;15.38;5.65;;;-0.30;99.90;;;;;;5072760;28;20032;-65
2024/01/19 04:18:56;;;;;;;11.15;5.85;;;-0.30;99.90;;;;;;5072696;28;20025;-65
2024/01/19 04:21:21;;;;;;;8.70;5.00;;;-0.30;99.90;;;;;;5071573;28;20043;-65
2024/01/19 04:23:48;;;;;;;11.13;5.35;;;-0.20;99.90;;;;;;5072660;28;20033;-65
2024/01/19 04:26:13;;;;;;;10.95;6.25;;;-0.20;99.90;;;;;;5072627;28;20061;-66
2024/01/19 04:28:39;;;;;;;12.27;5.80;;;-0.20;99.90;;;;;;5071491;28;20044;-65
2024/01/19 04:31:08;;;;;;;15.40;5.93;;;-0.20;99.90;;;;;;5072440;28;20045;-65
2024/01/19 04:33:33;;;;;;;10.98;4.95;;;-0.20;99.90;;;;;;5071054;28;20033;-65
2024/01/19 04:35:59;;;;;;;19.40;6.72;;;-0.20;99.90;;;;;;5072449;28;20028;-65
2024/01/19 04:38:25;;;;;;;9.75;5.70;;;-0.20;99.90;;;;;;5072244;28;20055;-65
2024/01/19 04:40:50;;;;;;;10.65;5.47;;;-0.20;99.90;;;;;;5072461;28;20033;-65
2024/01/19 04:43:16;;;;;;;13.02;5.97;;;-0.10;99.90;;;;;;5072382;28;20064;-65
2024/01/19 04:45:41;;;;;;;12.20;5.57;;;-0.20;99.90;;;;;;5072256;28;20033;-65
2024/01/19 04:48:07;;;;;;;9.27;4.65;;;-0.20;99.90;;;;;;5072273;28;20533;-65
2024/01/19 04:50:32;;;;;;;9.18;5.38;;;-0.20;99.90;;;;;;5072270;28;20029;-65
2024/01/19 04:52:58;;;;;;;13.77;6.38;;;-0.20;99.90;;;;;;5072112;28;20033;-65
2024/01/19 04:55:24;;;;;;;8.90;5.45;;;-0.20;99.90;;;;;;5072206;28;20048;-65
2024/01/19 04:57:49;;;;;;;10.38;5.35;;;-0.10;99.90;;;;;;5072063;28;20245;-65
2024/01/19 05:00:15;;;;;;;16.58;6.78;;;-0.10;99.90;;;;;;5072212;28;20029;-65
2024/01/19 05:02:42;;;;;;;13.32;6.00;;;-0.10;99.90;;;;;;5071867;28;20044;-65
2024/01/19 05:05:08;;;;;;;14.32;6.63;;;-0.10;99.90;;;;;;5072118;28;20036;-65
2024/01/19 05:07:34;;;;;;;14.10;6.30;;;-0.10;99.90;;;;;;5072039;28;20036;-65
2024/01/19 05:09:59;;;;;;;15.13;6.80;;;-0.10;99.90;;;;;;5072112;28;20036;-65
2024/01/19 05:12:25;;;;;;;10.95;6.55;;;0.00;99.90;;;;;;5071971;28;20036;-65
2024/01/19 05:14:51;;;;;;;9.48;4.70;;;-0.10;99.90;;;;;;5071959;28;20022;-66
2024/01/19 05:17:17;;;;;;;11.18;5.65;;;-0.10;99.90;;;;;;5071939;28;20056;-65
2024/01/19 05:19:43;;;;;;;12.43;6.72;;;-0.10;99.90;;;;;;5071865;28;20020;-66
2024/01/19 05:22:09;;;;;;;11.60;6.57;;;-0.10;99.90;;;;;;5071839;28;20037;-65
2024/01/19 05:24:39;;;;;;;10.77;5.57;;;-0.10;99.90;;;;;;5071894;28;20025;-65
2024/01/19 05:27:05;;;;;;;15.98;5.80;;;-0.10;99.90;;;;;;5071853;28;20055;-65
2024/01/19 05:29:30;;;;;;;9.88;5.57;;;-0.10;99.90;;;;;;5071769;28;20108;-65
2024/01/19 05:31:56;;;;;;;10.20;6.03;;;0.00;99.90;;;;;;5071737;28;20044;-65
2024/01/19 05:34:22;;;;;;;11.13;6.60;;;0.00;99.90;;;;;;5071642;28;20029;-65
2024/01/19 05:36:47;;;;;;;12.85;6.70;;;0.00;99.90;;;;;;5071754;28;20033;-65
2024/01/19 05:39:13;;;;;;;10.32;6.32;;;0.00;99.90;;;;;;5071799;28;20028;-65
2024/01/19 05:41:39;;;;;;;10.70;6.03;;;0.10;99.90;;;;;;5071741;28;20570;-65
2024/01/19 05:44:04;;;;;;;11.75;5.55;;;0.10;99.90;;;;;;5071721;28;20048;-65
2024/01/19 05:46:30;;;;;;;11.13;5.78;;;0.10;99.90;;;;;;5073547;28;20040;-65
2024/01/19 05:48:55;;;;;;;16.63;6.75;;;0.10;99.90;;;;;;5075582;28;20025;-65
2024/01/19 05:51:21;;;;;;;12.07;6.47;;;0.10;99.90;;;;;;5075490;28;20029;-65
2024/01/19 05:53:47;;;;;;;15.85;7.70;;;0.20;99.90;;;;;;5075542;28;20041;-64
2024/01/19 05:56:12;;;;;;;17.05;7.45;;;0.20;99.90;;;;;;5075545;28;20025;-65
2024/01/19 05:58:40;;;;;;;16.33;7.13;;;0.30;99.90;;;;;;5075151;28;20052;-65
2024/01/19 06:01:06;;;;;;;10.15;5.90;;;0.40;99.90;;;;;;5075474;28;20029;-65
2024/01/19 06:03:34;;;;;;;12.43;6.82;;;0.40;99.90;;;;;;5075170;28;20036;-65
2024/01/19 06:06:00;;;;;;;12.95;7.25;;;0.50;99.90;;;;;;5075369;28;20077;-65
2024/01/19 06:08:26;;;;;;;11.55;5.85;;;0.40;99.90;;;;;;5075235;28;20037;-65
2024/01/19 06:10:51;;;;;;;10.43;5.90;;;0.40;99.90;;;;;;5075263;28;20031;-65
2024/01/19 06:13:17;;;;;;;12.20;6.18;;;0.40;99.90;;;;;;5075013;28;20037;-64
2024/01/19 06:15:43;;;;;;;14.88;6.22;;;0.40;99.90;;;;;;5075182;28;20033;-65
2024/01/19 06:18:09;;;;;;;11.02;6.40;;;0.40;99.90;;;;;;5075018;28;20021;-65
2024/01/19 06:20:40;;;;;;;11.35;6.05;;;0.30;99.90;;;;;;5074951;28;20053;-65
2024/01/19 06:23:06;;;;;;;11.35;6.03;;;0.30;99.90;;;;;;5075074;28;20134;-65
2024/01/19 06:25:31;;;;;;;13.18;6.35;;;0.30;99.90;;;;;;5075019;28;20029;-65
2024/01/19 06:27:57;;;;;;;12.07;7.38;;;0.30;99.90;;;;;;5074864;28;20067;-65
2024/01/19 06:30:23;;;;;;;11.77;6.68;;;0.30;99.90;;;;;;5074926;28;20040;-65
2024/01/19 06:32:48;;;;;;;11.38;6.22;;;0.30;99.90;;;;;;5073464;28;20037;-65
2024/01/19 06:35:14;;;;;;;16.65;6.85;;;0.20;99.90;;;;;;5074743;28;20017;-65
2024/01/19 06:37:39;;;;;;;12.45;6.35;;;0.20;99.90;;;;;;5073529;28;20050;-65
2024/01/19 06:40:07;;;;;;;11.40;6.32;;;0.20;99.90;;;;;;5074678;28;20033;-64
2024/01/19 06:42:32;;;;;;;11.70;6.07;;;0.10;99.90;;;;;;5074689;28;20040;-65
2024/01/19 06:44:58;;;;;;;12.80;6.60;;;0.10;99.90;;;;;;5074637;28;20518;-65
2024/01/19 06:47:24;;;;;;;16.95;7.80;;;0.10;99.90;;;;;;5074397;28;20033;-66
2024/01/19 06:49:50;;;;;;;13.55;7.07;;;0.10;99.90;;;;;;5074467;28;20041;-65
2024/01/19 06:52:16;;;;;;;15.35;6.32;;;0.10;99.90;;;;;;5074375;28;20045;-65
2024/01/19 06:54:41;;;;;;;14.95;6.45;;;0.10;99.90;;;;;;5074391;28;20021;-66
2024/01/19 06:57:07;;;;;;;12.70;6.75;;;0.10;99.90;;;;;;5073005;28;20047;-65
2024/01/19 06:59:32;;;;;;;13.63;7.53;;;0.00;99.90;;;;;;5074213;28;20083;-66
2024/01/19 07:01:58;;;;;;;14.18;6.82;;;0.00;99.90;;;;;;5074353;28;20036;-66
2024/01/19 07:04:24;;;;;;;11.90;6.78;;;0.00;99.90;;;;;;5074169;28;20088;-66
2024/01/19 07:06:49;;;;;;;9.63;5.45;;;-0.10;99.90;;;;;;5074098;28;20081;-66
2024/01/19 07:09:17;;;;;;;14.60;7.82;;;-0.10;99.90;;;;;;5074183;28;20379;-66
2024/01/19 07:11:43;;;;;;;20.02;9.65;;;-0.10;99.90;;;;;;5073912;28;20056;-67
2024/01/19 07:14:09;;;;;;;18.45;9.13;;;-0.10;99.90;;;;;;5074043;28;20021;-66
2024/01/19 07:16:43;;;;;;;13.98;7.63;;;0.00;99.90;;;;;;5074035;28;20023;-66
2024/01/19 07:19:10;;;;;;;19.80;9.73;;;-0.10;99.90;;;;;;5073968;28;20060;-65
2024/01/19 07:21:37;;;;;;;21.75;8.77;;;-0.10;99.90;;;;;;5073774;28;20047;-65
2024/01/19 07:24:07;;;;;;;18.63;9.18;;;-0.10;99.90;;;;;;5073425;28;20033;-65
2024/01/19 07:26:33;;;;;;;18.45;9.05;;;-0.20;99.90;;;;;;5093813;28;20033;-65
2024/01/19 07:28:59;;;;;;;15.23;8.20;;;-0.20;99.90;;;;;;5093759;28;20027;-65
2024/01/19 07:31:25;;;;;;;25.05;11.32;;;-0.20;99.90;;;;;;5093820;28;20020;-65
2024/01/19 07:33:51;;;;;;;14.52;8.48;;;-0.20;99.90;;;;;;5093566;28;20027;-65
2024/01/19 07:36:17;;;;;;;15.65;8.60;;;-0.20;99.90;;;;;;5093729;28;20013;-65
2024/01/19 07:38:42;;;;;;;18.85;8.45;;;-0.20;99.90;;;;;;5092722;28;20029;-65
2024/01/19 07:41:08;;;;;;;32.05;11.85;;;-0.20;99.90;;;;;;5092056;28;20028;-65
2024/01/19 07:43:33;;;;;;;29.48;13.02;;;-0.30;99.90;;;;;;5093219;28;20067;-65
2024/01/19 07:45:59;;;;;;;22.30;10.90;;;-0.30;99.90;;;;;;5093335;28;20025;-65
2024/01/19 07:48:25;;;;;;;17.42;8.10;;;-0.30;99.90;;;;;;5093338;28;20029;-65
2024/01/19 07:50:50;;;;;;;23.92;10.85;;;-0.40;99.90;;;;;;5093288;28;20083;-65
2024/01/19 07:53:16;;;;;;;19.98;9.82;;;-0.30;99.90;;;;;;5093198;28;20028;-65
2024/01/19 07:55:42;;;;;;;19.85;9.40;;;-0.40;99.90;;;;;;5093351;28;20028;-65
2024/01/19 07:58:07;;;;;;;23.52;9.75;;;-0.40;99.90;;;;;;5093111;28;20049;-65
2024/01/19 08:00:33;;;;;;;18.83;9.38;;;-0.40;99.90;;;;;;5093189;28;20040;-65
2024/01/19 08:02:59;;;;;;;20.67;11.07;;;-0.40;99.90;;;;;;5092986;28;20028;-65
2024/01/19 08:05:25;;;;;;;26.60;11.40;;;-0.40;99.90;;;;;;5093161;28;20040;-65
2024/01/19 08:07:52;;;;;;;38.63;12.40;;;-0.40;99.90;;;;;;5092423;28;20040;-65
2024/01/19 08:10:18;;;;;;;21.67;8.88;;;-0.50;99.90;;;;;;5093016;28;20038;-65
2024/01/19 08:12:44;;;;;;;21.50;10.40;;;-0.40;99.90;;;;;;5092940;28;20036;-65
2024/01/19 08:15:10;;;;;;;20.10;10.15;;;-0.40;99.90;;;;;;5092919;28;20122;-65
2024/01/19 08:17:35;;;;;;;20.20;10.18;;;-0.50;99.90;;;;;;5092885;28;20036;-66
2024/01/19 08:20:01;;;;;;;15.40;8.73;;;-0.40;99.90;;;;;;5092769;28;20031;-65
2024/01/19 08:22:27;;;;;;;23.08;11.65;;;-0.40;99.90;;;;;;5092619;28;20033;-65
2024/01/19 08:24:53;;;;;;;17.48;8.25;;;-0.40;99.90;;;;;;5092766;28;20032;-66
2024/01/19 08:27:18;;;;;;;20.95;10.15;;;-0.40;99.90;;;;;;5092780;28;20078;-65
2024/01/19 08:29:47;;;;;;;16.85;9.43;;;-0.40;99.90;;;;;;5092655;28;20036;-65
2024/01/19 08:32:13;;;;;;;14.65;8.00;;;-0.40;99.90;;;;;;5092507;28;20115;-65
2024/01/19 08:34:39;;;;;;;16.67;8.82;;;-0.40;99.90;;;;;;5092535;28;20025;-65
2024/01/19 08:37:04;;;;;;;15.50;8.65;;;-0.40;99.90;;;;;;5092398;28;20036;-66
2024/01/19 08:39:30;;;;;;;19.20;10.88;;;-0.40;99.90;;;;;;5092529;28;20029;-65
2024/01/19 08:41:56;;;;;;;23.17;9.93;;;-0.40;99.90;;;;;;5092574;28;20023;-66
2024/01/19 08:44:22;;;;;;;23.17;12.18;;;-0.40;99.90;;;;;;5092577;28;20336;-65
2024/01/19 08:46:48;;;;;;;20.67;10.48;;;-0.30;99.90;;;;;;5092499;28;20035;-65
2024/01/19 08:49:14;;;;;;;25.58;11.23;;;-0.30;99.90;;;;;;5092415;28;20457;-65
2024/01/19 08:51:40;;;;;;;18.77;10.07;;;-0.30;99.90;;;;;;5092265;28;20043;-65
2024/01/19 08:54:06;;;;;;;14.30;9.38;;;-0.30;99.90;;;;;;5092484;28;20095;-65
2024/01/19 08:56:32;;;;;;;17.73;9.15;;;-0.30;99.90;;;;;;5092432;28;20025;-65
2024/01/19 08:58:58;;;;;;;16.42;7.95;;;-0.20;99.90;;;;;;5092207;28;20045;-65
2024/01/19 09:01:24;;;;;;;17.45;8.60;;;-0.20;99.90;;;;;;5091396;28;20401;-65
2024/01/19 09:03:49;;;;;;;20.27;10.98;;;-0.20;99.90;;;;;;5092081;28;20021;-65
2024/01/19 09:06:15;;;;;;;13.52;7.90;;;-0.20;99.90;;;;;;5091494;28;20542;-65
2024/01/19 09:08:42;;;;;;;16.38;9.48;;;-0.10;99.90;;;;;;5091724;28;20105;-65
2024/01/19 09:11:08;;;;;;;29.48;11.50;;;-0.10;99.90;;;;;;5092031;28;20025;-65
2024/01/19 09:13:34;;;;;;;21.35;10.32;;;0.00;99.90;;;;;;5092117;28;20016;-65
2024/01/19 09:16:00;;;;;;;16.63;9.52;;;0.00;99.90;;;;;;5091960;28;20610;-65
2024/01/19 09:18:25;;;;;;;20.08;11.13;;;0.00;99.90;;;;;;5091814;28;20044;-65
2024/01/19 09:20:51;;;;;;;21.13;12.05;;;0.10;99.90;;;;;;5093461;28;20032;-66
2024/01/19 09:23:16;;;;;;;16.73;9.32;;;0.10;99.90;;;;;;5095909;28;20036;-65
2024/01/19 09:25:42;;;;;;;14.95;9.13;;;0.10;99.90;;;;;;5096163;28;20029;-65
2024/01/19 09:28:08;;;;;;;21.10;11.77;;;0.10;99.90;;;;;;5096057;28;20025;-65
2024/01/19 09:30:34;;;;;;;16.70;9.07;;;0.10;99.90;;;;;;5095756;28;20031;-65
2024/01/19 09:32:59;;;;;;;20.80;9.77;;;0.10;99.90;;;;;;5095668;28;20028;-65
2024/01/19 09:35:25;;;;;;;25.20;13.23;;;0.20;99.90;;;;;;5095755;28;20036;-65
2024/01/19 09:37:51;;;;;;;14.18;7.93;;;0.30;99.90;;;;;;5095627;28;20047;-65
2024/01/19 09:40:19;;;;;;;18.10;9.23;;;0.20;99.90;;;;;;5095733;28;20033;-65
2024/01/19 09:42:47;;;;;;;18.55;9.45;;;0.30;99.90;;;;;;5095604;28;20020;-65
2024/01/19 09:45:21;;;;;;;17.40;8.43;;;0.30;99.90;;;;;;5095735;28;20032;-65
2024/01/19 09:48:02;;;;;;;19.05;10.48;;;0.30;99.90;;;;;;5095682;28;20059;-65
2024/01/19 09:50:36;;;;;;;15.50;8.48;;;0.40;99.90;;;;;;5095486;28;20020;-65
2024/01/19 09:53:19;;;;;;;13.00;8.40;;;0.40;99.90;;;;;;5095301;28;20021;-65
2024/01/19 09:55:49;;;;;;;20.30;9.68;;;0.40;99.90;;;;;;5095485;28;20020;-65
2024/01/19 09:58:16;;;;;;;18.13;8.18;;;0.50;99.90;;;;;;5095190;28;20041;-65
2024/01/19 10:00:41;;;;;;;14.10;7.93;;;0.50;99.90;;;;;;5095232;28;20082;-65
2024/01/19 10:03:09;;;;;;;17.10;9.60;;;0.60;99.90;;;;;;5095097;28;20088;-65
2024/01/19 10:05:36;;;;;;;16.42;9.00;;;0.60;99.90;;;;;;5095145;28;20020;-65
2024/01/19 10:08:04;;;;;;;17.35;9.32;;;0.70;99.90;;;;;;5093765;28;20056;-65
2024/01/19 10:10:29;;;;;;;16.05;8.63;;;0.80;99.90;;;;;;5094964;28;20032;-65
2024/01/19 10:12:55;;;;;;;12.75;7.45;;;0.90;99.90;;;;;;5094903;28;20032;-66
2024/01/19 10:15:21;;;;;;;22.75;10.40;;;1.00;99.90;;;;;;5095210;28;20021;-65
2024/01/19 10:17:47;;;;;;;14.82;7.93;;;1.00;99.90;;;;;;5095122;28;20059;-65
2024/01/19 10:20:15;;;;;;;18.67;9.15;;;1.10;99.90;;;;;;5094996;28;20028;-65
2024/01/19 10:22:41;;;;;;;15.60;8.70;;;1.20;99.90;;;;;;5095004;28;20048;-65
2024/01/19 10:25:09;;;;;;;17.25;9.07;;;1.30;99.90;;;;;;5095167;28;20017;-65
2024/01/19 10:27:46;;;;;;;14.55;8.00;;;1.30;99.90;;;;;;5095097;28;20046;-65
2024/01/19 10:30:13;;;;;;;16.50;7.95;;;1.40;99.90;;;;;;5095201;28;20025;-65
2024/01/19 10:32:40;;;;;;;15.25;7.55;;;1.50;99.90;;;;;;5094501;28;20028;-65
2024/01/19 10:35:11;;;;;;;13.95;7.43;;;1.50;99.90;;;;;;5078152;28;20044;-65
2024/01/19 10:37:37;;;;;;;13.13;6.93;;;1.60;99.90;;;;;;5074878;28;20037;-64
2024/01/19 10:40:20;;;;;;;12.70;7.75;;;1.70;99.90;;;;;;5074745;28;20052;-65
2024/01/19 10:42:47;;;;;;;19.65;9.80;;;1.70;99.90;;;;;;5074828;28;20033;-66
2024/01/19 10:45:21;;;;;;;14.07;7.55;;;1.80;99.90;;;;;;5074865;28;20021;-65
2024/01/19 10:47:48;;;;;;;13.02;6.82;;;1.90;99.90;;;;;;5074854;28;20018;-65
2024/01/19 10:50:15;;;;;;;12.13;6.70;;;1.90;99.90;;;;;;5074637;28;20025;-65
2024/01/19 10:52:48;;;;;;;13.77;7.10;;;2.00;99.90;;;;;;5074577;28;20051;-64
2024/01/19 10:55:21;;;;;;;9.80;5.90;;;2.10;99.90;;;;;;5074556;28;20411;-65
2024/01/19 10:58:12;;;;;;;9.88;6.15;;;2.10;99.90;;;;;;5074382;28;20032;-65
2024/01/19 11:00:38;;;;;;;11.98;6.50;;;2.20;99.90;;;;;;5074538;28;20076;-65
2024/01/19 11:03:04;;;;;;;15.90;7.20;;;2.20;99.90;;;;;;5074103;28;20502;-65
2024/01/19 11:05:31;;;;;;;10.73;6.88;;;2.20;99.90;;;;;;5074527;28;20036;-65
2024/01/19 11:07:58;;;;;;;11.95;6.60;;;2.30;99.90;;;;;;5074264;28;20063;-66
2024/01/19 11:10:27;;;;;;;14.82;7.53;;;2.40;99.90;;;;;;5074303;28;20025;-65
2024/01/19 11:13:00;;;;;;;11.95;7.07;;;2.50;99.90;;;;;;5074221;28;20084;-65
2024/01/19 11:15:35;;;;;;;16.77;7.43;;;2.50;99.90;;;;;;5074119;28;20254;-65
2024/01/19 11:18:03;;;;;;;17.92;6.47;;;2.60;99.90;;;;;;5074022;28;20013;-66
2024/01/19 11:20:31;;;;;;;19.30;8.68;;;2.60;99.90;;;;;;5073815;28;20031;-65
2024/01/19 11:22:56;;;;;;;12.23;6.65;;;2.70;99.90;;;;;;5073801;28;20020;-66
2024/01/19 11:25:33;;;;;;;12.95;7.25;;;2.70;99.90;;;;;;5073981;28;20025;-66
2024/01/19 11:28:17;;;;;;;16.58;7.35;;;2.70;99.90;;;;;;5073804;28;20070;-66
2024/01/19 11:31:13;;;;;;;10.10;6.13;;;2.80;99.90;;;;;;5073855;28;20084;-65
2024/01/19 11:33:39;;;;;;;12.65;6.55;;;2.90;99.90;;;;;;5073546;28;20028;-66
2024/01/19 11:36:04;;;;;;;14.13;8.95;;;2.90;99.90;;;;;;5073641;28;20112;-65
2024/01/19 11:38:46;;;;;;;13.25;7.70;;;3.00;99.90;;;;;;5073622;28;20041;-65
2024/01/19 11:41:33;;;;;;;12.13;8.00;;;3.10;99.90;;;;;;5073632;28;20036;-66
2024/01/19 11:44:12;;;;;;;14.02;8.00;;;3.10;99.90;;;;;;5072788;28;20029;-65
2024/01/19 11:46:44;;;;;;;13.48;7.13;;;3.20;99.90;;;;;;5073442;28;20032;-65
2024/01/19 11:49:29;;;;;;;13.85;6.78;;;3.20;99.90;;;;;;5073357;28;20028;-65
2024/01/19 11:52:00;;;;;;;13.25;6.60;;;3.30;99.90;;;;;;5073279;28;20124;-65
2024/01/19 11:54:27;;;;;;;14.73;7.45;;;3.30;99.90;;;;;;5073319;28;20021;-66
2024/01/19 11:57:14;;;;;;;9.75;6.10;;;3.40;99.90;;;;;;5073285;28;20035;-65
2024/01/19 11:59:40;;;;;;;12.70;7.03;;;3.40;99.90;;;;;;5073162;28;20051;-65
2024/01/19 12:02:06;;;;;;;12.73;7.47;;;3.50;99.90;;;;;;5073257;28;20017;-65
2024/01/19 12:04:34;;;;;;;13.57;7.65;;;3.50;99.90;;;;;;5072925;28;20399;-65
2024/01/19 12:07:03;;;;;;;11.88;6.43;;;3.50;99.90;;;;;;5073026;28;20021;-66
2024/01/19 12:09:29;;;;;;;16.20;7.78;;;3.60;99.90;;;;;;5072977;28;20088;-65
2024/01/19 12:11:58;;;;;;;12.23;6.00;;;3.70;99.90;;;;;;5072991;28;20036;-65
2024/01/19 12:14:24;;;;;;;14.45;7.35;;;3.70;99.90;;;;;;5072974;28;20018;-65
2024/01/19 12:16:50;;;;;;;13.32;6.38;;;3.80;99.90;;;;;;5072893;28;20047;-66
2024/01/19 12:19:16;;;;;;;11.23;6.65;;;3.90;99.90;;;;;;5072788;28;20016;-65
2024/01/19 12:21:42;;;;;;;13.05;6.05;;;3.90;99.90;;;;;;5072731;28;20017;-66
2024/01/19 12:24:07;;;;;;;18.98;8.88;;;3.90;99.90;;;;;;5072631;28;20032;-66
2024/01/19 12:26:33;;;;;;;16.75;9.25;;;4.00;99.90;;;;;;5072741;28;20043;-65
2024/01/19 12:28:59;;;;;;;13.63;8.38;;;4.00;99.90;;;;;;5072773;28;20044;-65
2024/01/19 12:31:36;;;;;;;15.93;9.25;;;4.10;99.90;;;;;;5072618;28;20041;-66
2024/01/19 12:34:12;;;;;;;11.80;6.35;;;4.20;99.90;;;;;;5072410;28;20017;-66
2024/01/19 12:36:39;;;;;;;13.27;8.68;;;4.20;99.90;;;;;;5072504;28;20029;-65
2024/01/19 12:39:06;;;;;;;11.18;6.20;;;4.30;99.90;;;;;;5072369;28;20451;-66
2024/01/19 12:41:33;;;;;;;10.32;5.75;;;4.30;99.90;;;;;;5072595;28;20020;-65